Time;durP1;ratioP1;P1;durP2;ratioP2;P2;SDS_P1;SDS_P2;PMS_P1;PMS_P2;Temp;Humidity;BMP_temperature;BMP_pressure;BME280_temperature;BME280_humidity;BME280_pressure;Samples;Min_cycle;Max_cycle;Signal;HPM_P1;HPM_P2
2021/12/19 00:00:20;;;;;;;;;;;;;;;9.84;74.35;101630.91;5054256;28;19976;-60
2021/12/19 00:03:32;;;;;;;;;;;;;;;9.81;74.23;101623.97;5054385;28;19925;-60
2021/12/19 00:11:10;;;;;;;;;;;;;;;9.72;74.25;101617.16;5052603;28;20296;-59
2021/12/19 00:13:37;;;;;;;;;;;;;;;9.69;74.14;101614.63;5054144;28;19920;-60
2021/12/19 00:16:04;;;;;;;;;;;;;;;9.65;74.12;101616.44;5054101;28;19924;-60
2021/12/19 00:18:30;;;;;;;;;;;;;;;9.64;74.18;101619.09;5054379;28;20377;-60
2021/12/19 00:20:56;;;;;;;;;;;;;;;9.61;73.89;101611.28;5053897;28;20518;-59
2021/12/19 00:23:38;;;;;;;;;;;;;;;9.58;73.98;101603.47;5054097;28;19942;-59
2021/12/19 00:26:05;;;;;;;;;;;;;;;9.54;74.10;101600.06;5053938;28;19974;-59
2021/12/19 00:28:31;;;;;;;;;;;;;;;9.52;74.07;101601.84;5053829;28;19947;-60
2021/12/19 00:30:58;;;;;;;;;;;;;;;9.52;74.21;101599.22;5053611;28;19925;-60
2021/12/19 00:33:24;;;;;;;;;;;;;;;9.50;74.47;101599.25;5054023;28;19931;-59
2021/12/19 00:35:51;;;;;;;;;;;;;;;9.48;74.26;101595.78;5053873;28;19920;-60
2021/12/19 00:38:17;;;;;;;;;;;;;;;9.47;74.44;101596.69;5053755;28;20079;-62
2021/12/19 00:40:44;;;;;;;;;;;;;;;9.47;74.47;101594.06;5053301;28;19929;-60
2021/12/19 00:43:22;;;;;;;;;;;;;;;9.46;74.45;101589.69;5053821;28;19948;-60
2021/12/19 00:45:50;;;;;;;;;;;;;;;9.45;74.48;101585.34;5053564;28;19995;-60
2021/12/19 00:48:16;;;;;;;;;;;;;;;9.45;74.36;101585.34;5053592;28;19943;-60
2021/12/19 00:50:43;;;;;;;;;;;;;;;9.45;74.48;101584.47;5052805;28;20426;-60
2021/12/19 00:53:10;;;;;;;;;;;;;;;9.44;74.46;101581.00;5053269;28;19928;-61
2021/12/19 00:55:37;;;;;;;;;;;;;;;9.43;74.51;101586.28;5053192;28;20050;-60
2021/12/19 00:58:04;;;;;;;;;;;;;;;9.43;74.39;101587.16;5053803;28;19967;-60
2021/12/19 01:00:32;;;;;;;;;;;;;;;9.41;74.52;101586.31;5051948;28;19978;-62
2021/12/19 01:03:00;;;;;;;;;;;;;;;9.42;74.57;101587.19;5053400;28;19921;-60
2021/12/19 01:05:29;;;;;;;;;;;;;;;9.41;74.39;101583.69;5051992;28;19925;-59
2021/12/19 01:07:56;;;;;;;;;;;;;;;9.41;74.55;101578.41;5052210;28;19943;-60
2021/12/19 01:10:23;;;;;;;;;;;;;;;9.41;74.56;101567.91;5052964;28;19927;-61
2021/12/19 01:12:49;;;;;;;;;;;;;;;9.41;74.65;101567.06;5051835;28;20399;-59
2021/12/19 01:15:17;;;;;;;;;;;;;;;9.42;74.66;101574.88;5053222;28;19924;-59
2021/12/19 01:17:43;;;;;;;;;;;;;;;9.41;74.75;101567.91;5051734;28;20365;-59
2021/12/19 01:20:12;;;;;;;;;;;;;;;9.43;74.67;101565.25;5052919;28;19925;-59
2021/12/19 01:22:39;;;;;;;;;;;;;;;9.44;74.49;101556.47;5052829;28;19975;-60
2021/12/19 01:25:05;;;;;;;;;;;;;;;9.43;74.51;101557.38;5052803;28;19920;-60
2021/12/19 01:27:32;;;;;;;;;;;;;;;9.43;74.69;101552.09;5052813;28;19931;-60
2021/12/19 01:29:58;;;;;;;;;;;;;;;9.43;74.67;101547.72;5052692;28;19928;-59
2021/12/19 01:32:25;;;;;;;;;;;;;;;9.43;74.77;101544.22;5052605;28;19924;-61
2021/12/19 01:34:51;;;;;;;;;;;;;;;9.43;74.66;101539.84;5052621;28;19925;-60
2021/12/19 01:37:18;;;;;;;;;;;;;;;9.43;74.61;101544.22;5052503;28;19928;-60
2021/12/19 01:39:44;;;;;;;;;;;;;;;9.43;74.66;101546.84;5052492;28;19921;-59
2021/12/19 01:42:11;;;;;;;;;;;;;;;9.43;74.70;101545.09;5052450;28;19970;-62
2021/12/19 01:44:38;;;;;;;;;;;;;;;9.43;74.77;101539.84;5052268;28;19924;-61
2021/12/19 01:47:05;;;;;;;;;;;;;;;9.43;74.95;101537.22;5052271;28;19975;-59
2021/12/19 01:49:31;;;;;;;;;;;;;;;9.43;74.65;101539.84;5051985;28;19921;-61
2021/12/19 01:51:58;;;;;;;;;;;;;;;9.44;74.61;101540.69;5052040;28;19931;-60
2021/12/19 01:54:24;;;;;;;;;;;;;;;9.44;74.64;101535.44;5052399;28;19932;-61
2021/12/19 01:56:51;;;;;;;;;;;;;;;9.45;74.67;101530.13;5052329;28;20292;-60
2021/12/19 01:59:17;;;;;;;;;;;;;;;9.44;74.66;101531.06;5051795;28;20296;-61
2021/12/19 02:01:45;;;;;;;;;;;;;;;9.45;74.62;101524.88;5052005;28;20352;-59
2021/12/19 02:04:12;;;;;;;;;;;;;;;9.44;74.78;101525.78;5050684;28;20372;-60
2021/12/19 02:06:39;;;;;;;;;;;;;;;9.44;74.66;101515.28;5052117;28;19928;-60
2021/12/19 02:09:07;;;;;;;;;;;;;;;9.47;74.62;101515.22;5051902;28;19921;-66
2021/12/19 02:11:34;;;;;;;;;;;;;;;9.46;74.85;101510.84;5051861;28;19932;-62
2021/12/19 02:14:01;;;;;;;;;;;;;;;9.46;74.76;101500.31;5051844;28;20435;-60
2021/12/19 02:16:28;;;;;;;;;;;;;;;9.47;74.74;101502.06;5051535;28;20383;-61
2021/12/19 02:18:55;;;;;;;;;;;;;;;9.47;74.83;101499.44;5050298;28;19928;-60
2021/12/19 02:21:22;;;;;;;;;;;;;;;9.48;74.96;101498.53;5050212;28;19925;-62
2021/12/19 02:23:48;;;;;;;;;;;;;;;9.48;74.68;101497.66;5051716;28;19920;-60
2021/12/19 02:26:15;;;;;;;;;;;;;;;9.47;74.73;101488.94;5051360;28;20522;-61
2021/12/19 02:28:42;;;;;;;;;;;;;;;9.49;74.91;101488.88;5050148;28;19920;-62
2021/12/19 02:31:09;;;;;;;;;;;;;;;9.47;74.81;101475.78;5051123;28;19966;-61
2021/12/19 02:33:40;;;;;;;;;;;;;;;9.47;74.73;101473.16;5051364;28;20416;-61
2021/12/19 02:36:45;;;;;;;;;;;;;;;9.48;74.61;101471.38;5050329;28;19924;-61
2021/12/19 02:50:06;;;;;;;;;;;;;;;9.47;75.03;101446.88;5050944;28;20015;-62
2021/12/19 02:52:33;;;;;;;;;;;;;;;9.47;74.82;101444.25;5051164;28;19928;-60
2021/12/19 02:54:59;;;;;;;;;;;;;;;9.48;75.00;101445.09;5051142;28;19982;-61
2021/12/19 02:57:26;;;;;;;;;;;;;;;9.48;74.84;101451.22;5051177;28;19924;-61
2021/12/19 02:59:52;;;;;;;;;;;;;;;9.48;75.05;101451.22;5051048;28;19955;-61
2021/12/19 03:02:19;;;;;;;;;;;;;;;9.49;74.89;101446.81;5051007;28;20292;-61
2021/12/19 03:04:59;;;;;;;;;;;;;;;9.48;74.95;101439.81;5050934;28;19920;-60
2021/12/19 03:07:27;;;;;;;;;;;;;;;9.48;75.10;101440.69;5050984;28;19927;-60
2021/12/19 03:20:23;;;;;;;;;;;;;;;9.51;75.00;101432.75;5050765;28;19932;-60
2021/12/19 03:22:50;;;;;;;;;;;;;;;9.54;74.94;101436.19;5050579;28;19929;-60
2021/12/19 03:25:16;;;;;;;;;;;;;;;9.53;75.02;101424.78;5050578;28;20381;-60
2021/12/19 03:27:43;;;;;;;;;;;;;;;9.55;75.00;101423.00;5050660;28;19974;-62
2021/12/19 03:30:10;;;;;;;;;;;;;;;9.57;75.13;101422.97;5052240;28;19951;-61
2021/12/19 03:32:36;;;;;;;;;;;;;;;9.57;75.04;101428.22;5055057;28;19920;-60
2021/12/19 03:35:04;;;;;;;;;;;;;;;9.57;74.88;101422.97;5054976;28;19971;-60
2021/12/19 03:37:30;;;;;;;;;;;;;;;9.57;74.94;101423.81;5054710;28;19929;-61
2021/12/19 03:40:22;;;;;;;;;;;;;;;9.57;74.81;101413.28;5054299;28;20331;-60
2021/12/19 03:42:48;;;;;;;;;;;;;;;9.57;74.98;101410.66;5054334;28;19928;-60
2021/12/19 03:45:17;;;;;;;;;;;;;;;9.58;74.96;101422.06;5054527;28;19925;-60
2021/12/19 03:47:44;;;;;;;;;;;;;;;9.58;74.83;101416.81;5054286;28;20339;-62
2021/12/19 03:50:13;;;;;;;;;;;;;;;9.58;74.96;101411.53;5054247;28;20011;-60
2021/12/19 03:52:39;;;;;;;;;;;;;;;9.58;74.96;101407.16;5053234;28;20034;-62
2021/12/19 03:55:06;;;;;;;;;;;;;;;9.59;74.88;101410.63;5054702;28;19924;-62
2021/12/19 03:57:32;;;;;;;;;;;;;;;9.60;74.92;101407.09;5054587;28;19920;-60
2021/12/19 03:59:59;;;;;;;;;;;;;;;9.60;74.99;101412.34;5054423;28;19924;-60
2021/12/19 04:02:27;;;;;;;;;;;;;;;9.61;74.99;101414.09;5054471;28;20385;-60
2021/12/19 04:04:55;;;;;;;;;;;;;;;9.62;74.99;101405.31;5054314;28;20537;-60
2021/12/19 04:07:22;;;;;;;;;;;;;;;9.62;74.94;101394.78;5054203;28;19951;-61
2021/12/19 04:09:48;;;;;;;;;;;;;;;9.62;75.02;101381.63;5054272;28;19943;-60
2021/12/19 04:12:15;;;;;;;;;;;;;;;9.63;74.77;101381.59;5054061;28;20439;-60
2021/12/19 04:14:42;;;;;;;;;;;;;;;9.61;74.96;101378.13;5054193;28;19924;-61
2021/12/19 04:17:09;;;;;;;;;;;;;;;9.62;74.80;101379.88;5052841;28;19921;-60
2021/12/19 04:19:36;;;;;;;;;;;;;;;9.61;74.73;101372.88;5052639;28;20278;-61
2021/12/19 04:22:03;;;;;;;;;;;;;;;9.60;74.74;101384.31;5054298;28;19928;-60
2021/12/19 04:24:30;;;;;;;;;;;;;;;9.59;74.66;101382.59;5053969;28;19920;-61
2021/12/19 04:26:57;;;;;;;;;;;;;;;9.59;75.00;101379.97;5053929;28;19931;-62
2021/12/19 04:29:24;;;;;;;;;;;;;;;9.58;74.64;101387.88;5053745;28;19944;-60
2021/12/19 04:31:52;;;;;;;;;;;;;;;9.58;74.88;101382.63;5052578;28;19928;-60
2021/12/19 04:34:19;;;;;;;;;;;;;;;9.59;74.82;101382.59;5053751;28;20424;-60
2021/12/19 04:36:50;;;;;;;;;;;;;;;9.60;74.77;101379.06;5054041;28;19920;-60
2021/12/19 04:39:27;;;;;;;;;;;;;;;9.61;75.00;101379.94;5053594;28;19921;-60
2021/12/19 04:53:06;;;;;;;;;;;;;;;9.61;75.00;101358.88;5053310;28;20384;-61
2021/12/19 05:03:56;;;;;;;;;;;;;;;9.58;75.06;101343.19;5050690;28;19929;-62
2021/12/19 05:14:39;;;;;;;;;;;;;;;9.56;74.99;101345.84;5053116;28;19978;-62
2021/12/19 05:17:09;;;;;;;;;;;;;;;9.56;74.98;101337.09;5052760;28;20395;-62
2021/12/19 05:19:46;;;;;;;;;;;;;;;9.56;74.97;101332.72;5051770;28;20006;-63
2021/12/19 05:22:13;;;;;;;;;;;;;;;9.55;74.64;101340.63;5052637;28;19966;-60
2021/12/19 05:25:00;;;;;;;;;;;;;;;9.54;74.54;101342.41;5052656;28;19928;-61
2021/12/19 05:27:27;;;;;;;;;;;;;;;9.52;74.58;101339.84;5052679;28;19931;-60
2021/12/19 05:29:54;;;;;;;;;;;;;;;9.52;74.86;101338.97;5052417;28;20332;-60
2021/12/19 05:32:20;;;;;;;;;;;;;;;9.51;74.83;101335.47;5052405;28;19925;-60
2021/12/19 05:34:48;;;;;;;;;;;;;;;9.51;74.57;101327.59;5052437;28;20289;-61
2021/12/19 05:45:29;;;;;;;;;;;;;;;9.46;74.83;101329.47;5052607;28;19974;-60
2021/12/19 05:47:57;;;;;;;;;;;;;;;9.48;74.76;101324.16;5052443;28;19933;-62
2021/12/19 05:50:23;;;;;;;;;;;;;;;9.47;74.62;101335.59;5052443;28;19963;-60
2021/12/19 05:52:50;;;;;;;;;;;;;;;9.45;74.51;101338.25;5051770;28;19920;-60
2021/12/19 05:55:17;;;;;;;;;;;;;;;9.47;74.89;101338.22;5052177;28;19950;-60
2021/12/19 05:57:44;;;;;;;;;;;;;;;9.46;74.95;101332.09;5052040;28;19924;-60
2021/12/19 06:00:13;;;;;;;;;;;;;;;9.45;74.74;101325.13;5052047;28;19928;-61
2021/12/19 06:02:40;;;;;;;;;;;;;;;9.45;74.76;101330.38;5052077;28;20377;-60
2021/12/19 06:05:08;;;;;;;;;;;;;;;9.45;74.68;101322.50;5050688;28;19925;-61
2021/12/19 06:07:35;;;;;;;;;;;;;;;9.46;74.81;101328.63;5052097;28;19920;-61
2021/12/19 06:10:03;;;;;;;;;;;;;;;9.45;74.70;101325.13;5051626;28;19925;-60
2021/12/19 06:12:29;;;;;;;;;;;;;;;9.45;74.85;101324.25;5050841;28;19935;-60
2021/12/19 06:14:56;;;;;;;;;;;;;;;9.44;74.83;101323.41;5052077;28;19967;-61
2021/12/19 06:17:22;;;;;;;;;;;;;;;9.44;74.77;101312.88;5050617;28;19925;-60
2021/12/19 06:19:49;;;;;;;;;;;;;;;9.41;74.63;101307.69;5051675;28;19990;-62
2021/12/19 06:22:15;;;;;;;;;;;;;;;9.41;74.83;101312.97;5051840;28;19924;-59
2021/12/19 06:24:42;;;;;;;;;;;;;;;9.39;74.63;101309.53;5051667;28;20266;-60
2021/12/19 06:27:08;;;;;;;;;;;;;;;9.38;74.80;101297.25;5050332;28;20415;-60
2021/12/19 06:29:35;;;;;;;;;;;;;;;9.38;74.77;101299.91;5051639;28;19932;-61
2021/12/19 06:32:01;;;;;;;;;;;;;;;9.37;74.54;101292.91;5051768;28;20266;-62
2021/12/19 06:34:28;;;;;;;;;;;;;;;9.37;74.72;101300.81;5051698;28;19974;-61
2021/12/19 06:36:54;;;;;;;;;;;;;;;9.36;74.56;101291.22;5051425;28;19944;-60
2021/12/19 06:39:22;;;;;;;;;;;;;;;9.35;74.46;101298.22;5051141;28;19929;-60
2021/12/19 06:41:48;;;;;;;;;;;;;;;9.34;74.66;101298.25;5051426;28;19920;-60
2021/12/19 06:44:15;;;;;;;;;;;;;;;9.33;74.66;101293.91;5051426;28;19920;-60
2021/12/19 06:46:42;;;;;;;;;;;;;;;9.32;74.63;101298.31;5051369;28;19924;-61
2021/12/19 06:49:08;;;;;;;;;;;;;;;9.33;74.69;101301.78;5050814;28;20419;-59
2021/12/19 06:51:35;;;;;;;;;;;;;;;9.33;74.95;101299.16;5049672;28;19928;-63
2021/12/19 06:54:02;;;;;;;;;;;;;;;9.34;74.76;101301.75;5050908;28;19924;-63
2021/12/19 06:56:29;;;;;;;;;;;;;;;9.35;74.92;101295.59;5051253;28;19982;-61
2021/12/19 06:58:55;;;;;;;;;;;;;;;9.37;75.09;101287.66;5050952;28;19921;-61
2021/12/19 07:01:22;;;;;;;;;;;;;;;9.38;74.86;101297.25;5050879;28;19924;-61
2021/12/19 07:03:48;;;;;;;;;;;;;;;9.39;74.99;101304.28;5050769;28;19921;-60
2021/12/19 07:06:17;;;;;;;;;;;;;;;9.41;75.11;101289.31;5050536;28;19924;-60
2021/12/19 07:08:43;;;;;;;;;;;;;;;9.43;75.13;101290.16;5051185;28;19974;-60
2021/12/19 07:11:10;;;;;;;;;;;;;;;9.45;75.00;101283.06;5050717;28;19974;-62
2021/12/19 07:13:36;;;;;;;;;;;;;;;9.46;75.19;101284.78;5050846;28;20323;-61
2021/12/19 07:16:04;;;;;;;;;;;;;;;9.47;74.93;101286.53;5050835;28;20376;-61
2021/12/19 07:18:31;;;;;;;;;;;;;;;9.48;75.03;101272.47;5049316;28;19936;-61
2021/12/19 07:20:57;;;;;;;;;;;;;;;9.49;74.91;101278.56;5050131;28;19955;-61
2021/12/19 07:23:24;;;;;;;;;;;;;;;9.49;74.97;101278.56;5051218;28;19929;-60
2021/12/19 07:25:50;;;;;;;;;;;;;;;9.50;74.73;101283.78;5050888;28;19921;-61
2021/12/19 07:28:17;;;;;;;;;;;;;;;9.48;74.66;101288.25;5050774;28;19924;-60
2021/12/19 07:30:47;;;;;;;;;;;;;;;9.49;74.67;101281.19;5050083;28;20436;-60
2021/12/19 07:33:13;;;;;;;;;;;;;;;9.48;74.80;101290.00;5050210;28;19925;-61
2021/12/19 07:35:44;;;;;;;;;;;;;;;9.46;74.61;101284.78;5050238;28;20011;-60
2021/12/19 07:38:16;;;;;;;;;;;;;;;9.44;74.48;101283.97;5050296;28;19967;-62
2021/12/19 07:40:46;;;;;;;;;;;;;;;9.42;74.46;101282.28;5050047;28;19928;-61
2021/12/19 07:43:13;;;;;;;;;;;;;;;9.40;74.53;101277.06;5050384;28;19924;-62
2021/12/19 07:45:40;;;;;;;;;;;;;;;9.38;74.70;101277.13;5049426;28;19924;-60
2021/12/19 07:48:07;;;;;;;;;;;;;;;9.37;74.61;101275.41;5048531;28;19931;-60
2021/12/19 07:50:34;;;;;;;;;;;;;;;9.36;74.72;101278.06;5050444;28;19931;-60
2021/12/19 07:53:01;;;;;;;;;;;;;;;9.35;74.61;101286.84;5050601;28;19928;-61
2021/12/19 07:55:28;;;;;;;;;;;;;;;9.34;74.69;101280.72;5049368;28;19929;-61
2021/12/19 07:57:54;;;;;;;;;;;;;;;9.34;74.66;101277.22;5049377;28;20476;-61
2021/12/19 08:00:21;;;;;;;;;;;;;;;9.34;74.86;101264.09;5050092;28;19920;-62
2021/12/19 08:02:49;;;;;;;;;;;;;;;9.33;74.80;101262.38;5050729;28;20367;-62
2021/12/19 08:05:16;;;;;;;;;;;;;;;9.32;74.74;101265.91;5050263;28;20403;-60
2021/12/19 08:07:47;;;;;;;;;;;;;;;9.30;74.79;101260.69;5050549;28;19930;-60
2021/12/19 08:11:39;;;;;;;;;;;;;;;9.29;74.90;101264.22;5050253;28;19932;-60
2021/12/19 08:13:01;;;;;;;;;;;;;;;9.30;74.91;101262.47;5050228;28;19929;-60
2021/12/19 08:15:28;;;;;;;;;;;;;;;9.30;74.84;101257.22;5050663;28;19947;-61
2021/12/19 08:17:54;;;;;;;;;;;;;;;9.30;75.02;101254.59;5054044;28;19925;-61
2021/12/19 08:20:21;;;;;;;;;;;;;;;9.31;74.83;101256.31;5054296;28;20058;-60
2021/12/19 08:22:49;;;;;;;;;;;;;;;9.33;74.94;101251.84;5054009;28;19927;-61
2021/12/19 08:25:15;;;;;;;;;;;;;;;9.32;75.14;101250.16;5053936;28;19927;-61
2021/12/19 08:27:42;;;;;;;;;;;;;;;9.33;75.04;101247.47;5053902;28;19928;-61
2021/12/19 08:30:10;;;;;;;;;;;;;;;9.34;75.12;101243.94;5053832;28;19921;-60
2021/12/19 08:32:36;;;;;;;;;;;;;;;9.35;75.02;101229.88;5054163;28;19928;-59
2021/12/19 08:35:04;;;;;;;;;;;;;;;9.37;75.20;101233.34;5053859;28;19921;-59
2021/12/19 08:37:31;;;;;;;;;;;;;;;9.37;74.84;101243.88;5053929;28;20373;-61
2021/12/19 08:39:57;;;;;;;;;;;;;;;9.39;75.03;101242.03;5053424;28;19940;-61
2021/12/19 08:42:24;;;;;;;;;;;;;;;9.40;74.97;101242.91;5053231;28;20368;-62
2021/12/19 08:44:51;;;;;;;;;;;;;;;9.39;74.99;101231.53;5053565;28;19932;-60
2021/12/19 08:47:17;;;;;;;;;;;;;;;9.39;74.79;101228.06;5053490;28;19921;-60
2021/12/19 08:49:44;;;;;;;;;;;;;;;9.41;74.97;101234.13;5053084;28;19928;-61
2021/12/19 08:52:10;;;;;;;;;;;;;;;9.43;75.07;101232.31;5053418;28;19927;-61
2021/12/19 08:54:37;;;;;;;;;;;;;;;9.43;75.03;101229.69;5053069;28;19925;-60
2021/12/19 08:57:04;;;;;;;;;;;;;;;9.45;75.17;101222.59;5053605;28;19929;-61
2021/12/19 08:59:31;;;;;;;;;;;;;;;9.46;75.03;101221.69;5052967;28;19925;-61
2021/12/19 09:02:00;;;;;;;;;;;;;;;9.46;75.03;101226.94;5052915;28;19924;-62
2021/12/19 09:04:27;;;;;;;;;;;;;;;9.46;75.02;101219.06;5052929;28;20323;-61
2021/12/19 09:06:56;;;;;;;;;;;;;;;9.46;75.02;101212.97;5051506;28;19939;-61
2021/12/19 09:09:23;;;;;;;;;;;;;;;9.46;74.76;101213.81;5052663;28;19924;-61
2021/12/19 09:11:49;;;;;;;;;;;;;;;9.45;74.54;101219.97;5053049;28;19928;-60
2021/12/19 09:14:16;;;;;;;;;;;;;;;9.45;74.80;101213.84;5053061;28;19974;-60
2021/12/19 09:16:42;;;;;;;;;;;;;;;9.45;74.75;101219.09;5052948;28;19929;-60
2021/12/19 09:19:11;;;;;;;;;;;;;;;9.45;74.76;101225.25;5052359;28;19925;-63
2021/12/19 09:21:38;;;;;;;;;;;;;;;9.47;74.99;101222.56;5052643;28;20551;-61
2021/12/19 09:24:04;;;;;;;;;;;;;;;9.48;74.68;101230.41;5052772;28;19924;-61
2021/12/19 09:26:31;;;;;;;;;;;;;;;9.49;75.02;101228.63;5052989;28;19921;-63
2021/12/19 09:28:57;;;;;;;;;;;;;;;9.50;74.91;101227.75;5051891;28;19920;-61
2021/12/19 09:31:25;;;;;;;;;;;;;;;9.51;75.02;101230.34;5052481;28;19921;-61
2021/12/19 09:33:51;;;;;;;;;;;;;;;9.51;75.06;101225.09;5052675;28;19925;-69
2021/12/19 09:36:17;;;;;;;;;;;;;;;9.52;75.02;101221.53;5052450;28;19921;-67
2021/12/19 09:38:48;;;;;;;;;;;;;;;9.55;74.93;101214.44;5052977;28;19928;-61
2021/12/19 09:41:27;;;;;;;;;;;;;;;9.56;74.88;101216.16;5052260;28;19964;-60
2021/12/19 09:43:56;;;;;;;;;;;;;;;9.57;74.94;101197.72;5051390;28;19931;-60
2021/12/19 09:46:25;;;;;;;;;;;;;;;9.58;74.98;101207.34;5050908;28;20377;-60
2021/12/19 09:48:51;;;;;;;;;;;;;;;9.60;75.02;101202.03;5050923;28;19932;-63
2021/12/19 09:51:18;;;;;;;;;;;;;;;9.61;74.85;101203.78;5051796;28;19921;-61
2021/12/19 09:53:45;;;;;;;;;;;;;;;9.61;74.74;101206.41;5052256;28;19928;-66
2021/12/19 09:56:12;;;;;;;;;;;;;;;9.62;74.84;101202.88;5050958;28;19932;-67
2021/12/19 09:58:40;;;;;;;;;;;;;;;9.61;74.77;101202.00;5052212;28;19925;-66
2021/12/19 10:01:08;;;;;;;;;;;;;;;9.63;74.83;101197.56;5051817;28;19928;-64
2021/12/19 10:03:37;;;;;;;;;;;;;;;9.63;75.12;101197.56;5051933;28;19928;-63
2021/12/19 10:06:16;;;;;;;;;;;;;;;9.63;74.64;101200.19;5050835;28;19921;-64
2021/12/19 10:08:45;;;;;;;;;;;;;;;9.65;74.93;101205.41;5051899;28;19924;-64
2021/12/19 10:11:30;;;;;;;;;;;;;;;9.66;75.02;101196.59;5051524;28;19924;-64
2021/12/19 10:13:56;;;;;;;;;;;;;;;9.67;75.08;101193.06;5051653;28;19924;-67
2021/12/19 10:16:25;;;;;;;;;;;;;;;9.69;75.09;101196.53;5052021;28;19921;-61
2021/12/19 10:18:52;;;;;;;;;;;;;;;9.71;74.86;101194.69;5051839;28;19932;-61
2021/12/19 10:21:22;;;;;;;;;;;;;;;9.73;74.88;101187.63;5051561;28;20384;-76
2021/12/19 10:23:49;;;;;;;;;;;;;;;9.74;74.62;101185.84;5050547;28;19920;-61
2021/12/19 10:26:16;;;;;;;;;;;;;;;9.76;74.74;101187.53;5051651;28;19966;-61
2021/12/19 10:28:53;;;;;;;;;;;;;;;9.78;75.04;101182.22;5050531;28;19946;-60
2021/12/19 10:31:20;;;;;;;;;;;;;;;9.80;74.97;101179.53;5051666;28;19928;-62
2021/12/19 10:33:47;;;;;;;;;;;;;;;9.80;75.08;101174.28;5051586;28;20335;-63
2021/12/19 10:36:16;;;;;;;;;;;;;;;9.82;74.89;101175.97;5051656;28;20388;-61
2021/12/19 10:38:43;;;;;;;;;;;;;;;9.83;74.90;101172.41;5051212;28;19925;-63
2021/12/19 10:41:09;;;;;;;;;;;;;;;9.83;74.42;101167.16;5050076;28;19951;-62
2021/12/19 10:43:42;;;;;;;;;;;;;;;9.85;74.53;101164.47;5051253;28;20265;-61
2021/12/19 10:46:08;;;;;;;;;;;;;;;9.84;74.48;101155.75;5051458;28;19920;-61
2021/12/19 10:48:37;;;;;;;;;;;;;;;9.84;74.39;101157.50;5051163;28;19928;-63
2021/12/19 10:51:15;;;;;;;;;;;;;;;9.84;74.18;101145.22;5050784;28;19939;-63
2021/12/19 10:53:44;;;;;;;;;;;;;;;9.84;74.26;101147.00;5050990;28;20361;-62
2021/12/19 10:56:10;;;;;;;;;;;;;;;9.86;74.54;101150.41;5049980;28;19948;-61
2021/12/19 10:58:45;;;;;;;;;;;;;;;9.88;74.81;101148.63;5051366;28;20435;-61
2021/12/19 11:01:16;;;;;;;;;;;;;;;9.89;74.87;101140.69;5049727;28;19921;-61
2021/12/19 11:03:45;;;;;;;;;;;;;;;9.92;74.77;101139.72;5051071;28;19931;-61
2021/12/19 11:06:16;;;;;;;;;;;;;;;9.93;74.73;101133.53;5051124;28;19987;-61
2021/12/19 11:08:48;;;;;;;;;;;;;;;9.93;74.82;101130.91;5050896;28;19921;-62
2021/12/19 11:11:29;;;;;;;;;;;;;;;9.94;74.47;101130.00;5050929;28;19947;-61
2021/12/19 11:13:55;;;;;;;;;;;;;;;9.95;74.71;101118.59;5050684;28;19921;-63
2021/12/19 11:16:22;;;;;;;;;;;;;;;9.96;74.74;101111.53;5050707;28;19925;-61
2021/12/19 11:18:49;;;;;;;;;;;;;;;9.98;74.63;101113.19;5051161;28;19974;-61
2021/12/19 11:21:18;;;;;;;;;;;;;;;9.99;74.79;101107.03;5050505;28;19920;-62
2021/12/19 11:23:45;;;;;;;;;;;;;;;10.01;74.74;101096.44;5050695;28;19954;-62
2021/12/19 11:26:11;;;;;;;;;;;;;;;10.03;74.77;101094.66;5049497;28;19925;-61
2021/12/19 11:28:38;;;;;;;;;;;;;;;10.03;74.79;101087.59;5050558;28;19921;-62
2021/12/19 11:31:05;;;;;;;;;;;;;;;10.04;74.78;101091.09;5050340;28;19924;-62
2021/12/19 11:33:34;;;;;;;;;;;;;;;10.04;74.89;101086.72;5050781;28;19927;-62
2021/12/19 11:36:02;;;;;;;;;;;;;;;10.04;74.74;101078.81;5050787;28;19946;-62
2021/12/19 11:38:29;;;;;;;;;;;;;;;10.07;74.84;101074.34;5050544;28;19920;-62
2021/12/19 11:40:56;;;;;;;;;;;;;;;10.07;74.71;101069.09;5050392;28;19986;-63
2021/12/19 11:43:34;;;;;;;;;;;;;;;10.08;74.81;101063.78;5050428;28;19994;-62
2021/12/19 11:46:04;;;;;;;;;;;;;;;10.09;74.75;101060.22;5050752;28;19931;-62
2021/12/19 11:48:34;;;;;;;;;;;;;;;10.08;74.75;101058.50;5049506;28;19928;-62
2021/12/19 11:51:03;;;;;;;;;;;;;;;10.08;74.85;101055.00;5050057;28;19932;-62
2021/12/19 11:53:41;;;;;;;;;;;;;;;10.09;74.81;101044.44;5054544;28;19928;-61
2021/12/19 11:56:09;;;;;;;;;;;;;;;10.11;74.79;101054.91;5053285;28;19925;-61
2021/12/19 11:58:56;;;;;;;;;;;;;;;10.10;74.77;101045.31;5054282;28;19924;-65
2021/12/19 12:01:28;;;;;;;;;;;;;;;10.12;74.76;101051.38;5054223;28;19933;-63
2021/12/19 12:03:56;;;;;;;;;;;;;;;10.10;74.43;101045.31;5054023;28;19921;-62
2021/12/19 12:06:25;;;;;;;;;;;;;;;10.11;74.77;101049.66;5052903;28;20015;-62
2021/12/19 12:09:26;;;;;;;;;;;;;;;10.12;74.81;101046.09;5052703;28;19931;-61
2021/12/19 12:12:05;;;;;;;;;;;;;;;10.12;74.68;101046.09;5042131;28;20414;-61
2021/12/19 12:14:35;;;;;;;;;;;;;;;10.11;74.60;101023.34;5053993;28;19920;-62
2021/12/19 12:17:07;;;;;;;;;;;;;;;10.11;74.38;101041.75;5052692;28;19921;-62
2021/12/19 12:19:40;;;;;;;;;;;;;;;10.08;74.43;101024.31;5052603;28;19925;-61
2021/12/19 12:22:43;;;;;;;;;;;;;;;10.07;74.27;101019.09;5053949;28;19976;-62
2021/12/19 12:25:27;;;;;;;;;;;;;;;10.06;74.62;101018.25;5053018;28;19924;-61
2021/12/19 12:27:56;;;;;;;;;;;;;;;10.06;74.63;101023.53;5053712;28;20557;-63
2021/12/19 12:30:27;;;;;;;;;;;;;;;10.07;74.79;101019.09;5053715;28;19921;-61
2021/12/19 12:32:55;;;;;;;;;;;;;;;10.06;74.70;101010.38;5054142;28;19929;-62
2021/12/19 12:35:22;;;;;;;;;;;;;;;10.06;74.47;101010.38;5053782;28;20015;-62
2021/12/19 12:37:50;;;;;;;;;;;;;;;10.06;74.26;101009.50;5053940;28;19928;-63
2021/12/19 12:40:29;;;;;;;;;;;;;;;10.06;74.56;101012.13;5053635;28;19927;-62
2021/12/19 12:42:59;;;;;;;;;;;;;;;10.07;74.57;101011.22;5052310;28;19925;-61
2021/12/19 12:45:26;;;;;;;;;;;;;;;10.08;74.58;101015.56;5052269;28;19927;-62
2021/12/19 12:47:53;;;;;;;;;;;;;;;10.08;74.54;101005.03;5053464;28;19925;-61
2021/12/19 12:50:19;;;;;;;;;;;;;;;10.08;74.64;101012.91;5053204;28;19982;-63
2021/12/19 12:52:46;;;;;;;;;;;;;;;10.08;74.76;101002.41;5053420;28;19928;-61
2021/12/19 12:55:14;;;;;;;;;;;;;;;10.10;74.93;101003.22;5053452;28;19921;-62
2021/12/19 12:57:43;;;;;;;;;;;;;;;10.11;74.86;100997.91;5052302;28;20262;-62
2021/12/19 13:00:22;;;;;;;;;;;;;;;10.13;74.97;100993.44;5051948;28;19932;-64
2021/12/19 13:03:09;;;;;;;;;;;;;;;10.14;74.81;100989.88;5052010;28;19924;-62
2021/12/19 13:05:36;;;;;;;;;;;;;;;10.17;74.73;100983.69;5053370;28;20015;-62
2021/12/19 13:08:02;;;;;;;;;;;;;;;10.17;74.60;100981.06;5053370;28;19924;-62
2021/12/19 13:10:29;;;;;;;;;;;;;;;10.19;74.26;100994.13;5053109;28;19943;-62
2021/12/19 13:12:55;;;;;;;;;;;;;;;10.18;73.73;100988.03;5053064;28;19924;-62
2021/12/19 13:15:22;;;;;;;;;;;;;;;10.17;74.15;100981.88;5053218;28;19967;-63
2021/12/19 13:17:50;;;;;;;;;;;;;;;10.17;74.39;100989.78;5053286;28;19928;-63
2021/12/19 13:20:25;;;;;;;;;;;;;;;10.18;74.10;100990.66;5052935;28;19931;-62
2021/12/19 13:22:53;;;;;;;;;;;;;;;10.18;74.23;100982.75;5051834;28;19925;-61
2021/12/19 13:25:22;;;;;;;;;;;;;;;10.19;74.32;100987.09;5052848;28;19924;-62
2021/12/19 13:27:50;;;;;;;;;;;;;;;10.17;74.40;100981.06;5051369;28;19931;-61
2021/12/19 13:30:19;;;;;;;;;;;;;;;10.18;74.47;100980.13;5052771;28;19928;-63
2021/12/19 13:32:53;;;;;;;;;;;;;;;10.17;74.45;100967.91;5052885;28;19932;-62
2021/12/19 13:35:29;;;;;;;;;;;;;;;10.16;74.14;100974.91;5055496;28;19920;-62
2021/12/19 13:37:58;;;;;;;;;;;;;;;10.16;74.41;100966.16;5052674;28;20331;-61
2021/12/19 13:40:26;;;;;;;;;;;;;;;10.15;74.44;100972.34;5052044;28;20296;-62
2021/12/19 13:43:06;;;;;;;;;;;;;;;10.16;74.35;100966.16;5051155;28;19947;-63
2021/12/19 13:45:37;;;;;;;;;;;;;;;10.15;74.36;100960.06;5052446;28;19924;-62
2021/12/19 13:48:05;;;;;;;;;;;;;;;10.15;74.44;100962.69;5050959;28;19925;-69
2021/12/19 13:50:39;;;;;;;;;;;;;;;10.14;74.44;100954.84;5051805;28;20273;-62
2021/12/19 13:53:06;;;;;;;;;;;;;;;10.14;74.44;100946.94;5052354;28;19928;-62
2021/12/19 13:55:40;;;;;;;;;;;;;;;10.14;74.28;100950.41;5052101;28;20427;-62